sensor_id;sensor_type;location;lat;lon;timestamp;pressure;altitude;pressure_sealevel;temperature;humidity
73297;BME280;61524;50.938;11.396;2022-11-03T02:20:15;99442.13;;;2.12;100.00
73297;BME280;61524;50.938;11.396;2022-11-03T02:25:50;99433.88;;;2.00;100.00
73297;BME280;61524;50.938;11.396;2022-11-03T02:28:21;99428.66;;;1.92;100.00
73297;BME280;61524;50.938;11.396;2022-11-03T02:31:10;99425.94;;;1.86;100.00
73297;BME280;61524;50.938;11.396;2022-11-03T02:36:25;99425.03;;;1.78;100.00
73297;BME280;61524;50.938;11.396;2022-11-03T02:39:13;99412.22;;;1.75;100.00
73297;BME280;61524;50.938;11.396;2022-11-03T02:41:41;99419.03;;;1.70;100.00
73297;BME280;61524;50.938;11.396;2022-11-03T02:44:13;99411.94;;;1.70;100.00
73297;BME280;61524;50.938;11.396;2022-11-03T02:46:42;99417.88;;;1.72;100.00
73297;BME280;61524;50.938;11.396;2022-11-03T02:49:08;99400.22;;;1.58;100.00
73297;BME280;61524;50.938;11.396;2022-11-03T02:51:34;99403.47;;;1.60;100.00
73297;BME280;61524;50.938;11.396;2022-11-03T02:54:19;99412.72;;;1.56;100.00
73297;BME280;61524;50.938;11.396;2022-11-03T02:57:12;99399.41;;;1.57;100.00
73297;BME280;61524;50.938;11.396;2022-11-03T02:59:46;99389.41;;;1.53;100.00
73297;BME280;61524;50.938;11.396;2022-11-03T03:02:18;99392.09;;;1.45;100.00
73297;BME280;61524;50.938;11.396;2022-11-03T03:04:50;99398.03;;;1.47;100.00
73297;BME280;61524;50.938;11.396;2022-11-03T03:07:39;99393.09;;;1.44;100.00
73297;BME280;61524;50.938;11.396;2022-11-03T03:10:11;99383.50;;;1.51;100.00
73297;BME280;61524;50.938;11.396;2022-11-03T03:12:40;99388.94;;;1.49;100.00
73297;BME280;61524;50.938;11.396;2022-11-03T03:15:07;99378.59;;;1.48;100.00
73297;BME280;61524;50.938;11.396;2022-11-03T03:17:50;99368.97;;;1.55;100.00
73297;BME280;61524;50.938;11.396;2022-11-03T03:20:43;99372.13;;;1.50;100.00
73297;BME280;61524;50.938;11.396;2022-11-03T03:23:19;99364.72;;;1.54;100.00
73297;BME280;61524;50.938;11.396;2022-11-03T03:25:51;99352.00;;;1.57;100.00
73297;BME280;61524;50.938;11.396;2022-11-03T03:28:31;99355.38;;;1.51;100.00
73297;BME280;61524;50.938;11.396;2022-11-03T03:31:00;99346.75;;;1.57;100.00
73297;BME280;61524;50.938;11.396;2022-11-03T03:33:28;99352.00;;;1.57;100.00
73297;BME280;61524;50.938;11.396;2022-11-03T03:35:54;99344.53;;;1.61;100.00
73297;BME280;61524;50.938;11.396;2022-11-03T03:38:27;99351.00;;;1.58;100.00
73297;BME280;61524;50.938;11.396;2022-11-03T03:40:56;99348.56;;;1.57;100.00
73297;BME280;61524;50.938;11.396;2022-11-03T03:43:25;99344.84;;;1.51;100.00
73297;BME280;61524;50.938;11.396;2022-11-03T03:45:55;99341.53;;;1.49;100.00
73297;BME280;61524;50.938;11.396;2022-11-03T03:48:22;99349.63;;;1.48;100.00
73297;BME280;61524;50.938;11.396;2022-11-03T03:50:49;99346.53;;;1.44;100.00
73297;BME280;61524;50.938;11.396;2022-11-03T03:53:17;99337.38;;;1.40;100.00
73297;BME280;61524;50.938;11.396;2022-11-03T03:55:46;99335.44;;;1.34;100.00
73297;BME280;61524;50.938;11.396;2022-11-03T03:58:13;99338.06;;;1.34;100.00
73297;BME280;61524;50.938;11.396;2022-11-03T04:00:40;99336.69;;;1.23;100.00
73297;BME280;61524;50.938;11.396;2022-11-03T04:03:13;99330.19;;;1.19;100.00
73297;BME280;61524;50.938;11.396;2022-11-03T04:05:38;99324.25;;;1.17;100.00
73297;BME280;61524;50.938;11.396;2022-11-03T04:08:04;99317.19;;;1.18;100.00
73297;BME280;61524;50.938;11.396;2022-11-03T04:10:29;99316.28;;;1.11;100.00
73297;BME280;61524;50.938;11.396;2022-11-03T04:12:55;99319.81;;;1.03;100.00
73297;BME280;61524;50.938;11.396;2022-11-03T04:15:39;99314.16;;;1.06;100.00
73297;BME280;61524;50.938;11.396;2022-11-03T04:18:13;99315.47;;;1.10;100.00
73297;BME280;61524;50.938;11.396;2022-11-03T04:20:58;99317.00;;;1.04;100.00
73297;BME280;61524;50.938;11.396;2022-11-03T04:23:42;99316.72;;;0.99;100.00
73297;BME280;61524;50.938;11.396;2022-11-03T04:26:13;99315.47;;;1.10;100.00
73297;BME280;61524;50.938;11.396;2022-11-03T04:28:39;99313.63;;;1.11;100.00
73297;BME280;61524;50.938;11.396;2022-11-03T04:31:11;99320.00;;;1.16;100.00
73297;BME280;61524;50.938;11.396;2022-11-03T04:33:37;99300.50;;;1.11;100.00
73297;BME280;61524;50.938;11.396;2022-11-03T04:36:10;99318.38;;;1.15;100.00
73297;BME280;61524;50.938;11.396;2022-11-03T04:38:37;99311.00;;;1.11;100.00
73297;BME280;61524;50.938;11.396;2022-11-03T04:41:14;99314.16;;;1.06;100.00
73297;BME280;61524;50.938;11.396;2022-11-03T04:43:40;99309.63;;;1.00;100.00
73297;BME280;61524;50.938;11.396;2022-11-03T04:46:10;99298.34;;;0.91;100.00
73297;BME280;61524;50.938;11.396;2022-11-03T04:48:36;99304.78;;;0.89;100.00
73297;BME280;61524;50.938;11.396;2022-11-03T04:51:12;99300.25;;;0.83;100.00
73297;BME280;61524;50.938;11.396;2022-11-03T04:53:38;99299.97;;;0.77;100.00
73297;BME280;61524;50.938;11.396;2022-11-03T04:56:15;99306.22;;;0.76;100.00
73297;BME280;61524;50.938;11.396;2022-11-03T04:58:41;99307.66;;;0.79;100.00
73297;BME280;61524;50.938;11.396;2022-11-03T05:01:12;99311.09;;;0.79;100.00
73297;BME280;61524;50.938;11.396;2022-11-03T05:03:38;99306.75;;;0.72;100.00
73297;BME280;61524;50.938;11.396;2022-11-03T05:06:15;99297.16;;;0.79;100.00
73297;BME280;61524;50.938;11.396;2022-11-03T05:08:43;99296.16;;;0.80;100.00
73297;BME280;61524;50.938;11.396;2022-11-03T05:13:50;99303.50;;;0.85;100.00
73297;BME280;61524;50.938;11.396;2022-11-03T05:16:16;99298.25;;;0.85;100.00
73297;BME280;61524;50.938;11.396;2022-11-03T05:18:43;99297.97;;;0.79;100.00
73297;BME280;61524;50.938;11.396;2022-11-03T05:21:20;99292.88;;;0.78;100.00
73297;BME280;61524;50.938;11.396;2022-11-03T05:23:52;99296.63;;;0.84;100.00
73297;BME280;61524;50.938;11.396;2022-11-03T05:26:21;99285.63;;;0.80;100.00
73297;BME280;61524;50.938;11.396;2022-11-03T05:29:02;99285.72;;;0.72;100.00
73297;BME280;61524;50.938;11.396;2022-11-03T05:31:28;99285.72;;;0.72;100.00
73297;BME280;61524;50.938;11.396;2022-11-03T05:33:59;99273.19;;;0.74;100.00
73297;BME280;61524;50.938;11.396;2022-11-03T05:36:28;99257.94;;;0.69;100.00
73297;BME280;61524;50.938;11.396;2022-11-03T05:41:52;99264.56;;;0.65;100.00
73297;BME280;61524;50.938;11.396;2022-11-03T05:44:36;99255.69;;;0.66;100.00
73297;BME280;61524;50.938;11.396;2022-11-03T05:47:11;99247.28;;;0.71;100.00
73297;BME280;61524;50.938;11.396;2022-11-03T05:49:38;99268.03;;;0.81;100.00
73297;BME280;61524;50.938;11.396;2022-11-03T05:52:04;99261.53;;;0.76;100.00
73297;BME280;61524;50.938;11.396;2022-11-03T05:54:37;99253.78;;;0.75;100.00
73297;BME280;61524;50.938;11.396;2022-11-03T05:57:09;99250.66;;;0.94;100.00
73297;BME280;61524;50.938;11.396;2022-11-03T05:59:36;99235.06;;;0.93;100.00
73297;BME280;61524;50.938;11.396;2022-11-03T06:02:03;99259.09;;;0.90;100.00
73297;BME280;61524;50.938;11.396;2022-11-03T06:04:35;99252.19;;;0.89;100.00
73297;BME280;61524;50.938;11.396;2022-11-03T06:09:39;99252.56;;;1.00;100.00
73297;BME280;61524;50.938;11.396;2022-11-03T06:12:05;99245.50;;;1.01;100.00
73297;BME280;61524;50.938;11.396;2022-11-03T06:14:31;99238.53;;;1.08;100.00
73297;BME280;61524;50.938;11.396;2022-11-03T06:17:01;99237.88;;;1.06;100.00
73297;BME280;61524;50.938;11.396;2022-11-03T06:19:44;99233.72;;;1.12;100.00
73297;BME280;61524;50.938;11.396;2022-11-03T06:22:26;99229.09;;;1.14;100.00
73297;BME280;61524;50.938;11.396;2022-11-03T06:24:56;99224.94;;;1.19;100.00
73297;BME280;61524;50.938;11.396;2022-11-03T06:27:25;99223.00;;;1.28;100.00
73297;BME280;61524;50.938;11.396;2022-11-03T06:29:56;99229.28;;;1.42;100.00
73297;BME280;61524;50.938;11.396;2022-11-03T06:32:22;99226.91;;;1.47;100.00
73297;BME280;61524;50.938;11.396;2022-11-03T06:34:59;99219.00;;;1.62;100.00
73297;BME280;61524;50.938;11.396;2022-11-03T06:37:28;99228.53;;;1.63;100.00
73297;BME280;61524;50.938;11.396;2022-11-03T06:42:39;99230.19;;;1.85;100.00
73297;BME280;61524;50.938;11.396;2022-11-03T06:45:16;99242.63;;;1.91;100.00
73297;BME280;61524;50.938;11.396;2022-11-03T06:47:43;99232.53;;;1.95;100.00
73297;BME280;61524;50.938;11.396;2022-11-03T06:50:27;99225.16;;;2.05;100.00
73297;BME280;61524;50.938;11.396;2022-11-03T06:52:53;99223.00;;;2.15;100.00
73297;BME280;61524;50.938;11.396;2022-11-03T06:55:33;99226.16;;;2.25;100.00
73297;BME280;61524;50.938;11.396;2022-11-03T06:58:29;99211.84;;;2.34;100.00
73297;BME280;61524;50.938;11.396;2022-11-03T07:01:01;99209.50;;;2.46;100.00
73297;BME280;61524;50.938;11.396;2022-11-03T07:03:31;99212.50;;;2.65;100.00
73297;BME280;61524;50.938;11.396;2022-11-03T07:06:20;99207.38;;;2.84;100.00
73297;BME280;61524;50.938;11.396;2022-11-03T07:08:55;99208.13;;;3.06;100.00
73297;BME280;61524;50.938;11.396;2022-11-03T07:11:24;99208.25;;;3.26;100.00
73297;BME280;61524;50.938;11.396;2022-11-03T07:13:53;99209.31;;;3.38;100.00
73297;BME280;61524;50.938;11.396;2022-11-03T07:16:35;99208.63;;;3.64;100.00
73297;BME280;61524;50.938;11.396;2022-11-03T07:19:11;99210.09;;;3.80;100.00
73297;BME280;61524;50.938;11.396;2022-11-03T07:21:44;99214.03;;;4.11;100.00
73297;BME280;61524;50.938;11.396;2022-11-03T07:24:25;99214.25;;;4.22;100.00
73297;BME280;61524;50.938;11.396;2022-11-03T07:29:52;99210.63;;;4.43;100.00
73297;BME280;61524;50.938;11.396;2022-11-03T07:32:21;99220.22;;;4.64;100.00
73297;BME280;61524;50.938;11.396;2022-11-03T07:34:48;99209.00;;;4.76;100.00
73297;BME280;61524;50.938;11.396;2022-11-03T07:37:22;99209.78;;;4.89;100.00
73297;BME280;61524;50.938;11.396;2022-11-03T07:39:49;99214.88;;;4.97;100.00
73297;BME280;61524;50.938;11.396;2022-11-03T07:42:20;99203.47;;;5.04;100.00
73297;BME280;61524;50.938;11.396;2022-11-03T07:44:47;99190.44;;;5.02;100.00
73297;BME280;61524;50.938;11.396;2022-11-03T07:47:15;99196.94;;;5.13;100.00
73297;BME280;61524;50.938;11.396;2022-11-03T07:49:43;99197.28;;;5.36;100.00
73297;BME280;61524;50.938;11.396;2022-11-03T07:52:11;99192.38;;;5.40;100.00
73297;BME280;61524;50.938;11.396;2022-11-03T07:54:37;99188.03;;;5.59;100.00
73297;BME280;61524;50.938;11.396;2022-11-03T07:59:46;99186.72;;;5.74;100.00
73297;BME280;61524;50.938;11.396;2022-11-03T08:05:00;99178.25;;;6.04;99.63
73297;BME280;61524;50.938;11.396;2022-11-03T08:07:26;99164.94;;;6.11;99.46
73297;BME280;61524;50.938;11.396;2022-11-03T08:09:52;99159.28;;;6.32;99.71
73297;BME280;61524;50.938;11.396;2022-11-03T08:12:18;99159.47;;;6.55;99.15
73297;BME280;61524;50.938;11.396;2022-11-03T08:14:44;99142.69;;;6.62;98.29
73297;BME280;61524;50.938;11.396;2022-11-03T08:17:09;99147.50;;;6.71;97.99
73297;BME280;61524;50.938;11.396;2022-11-03T08:19:35;99141.28;;;6.84;97.97
73297;BME280;61524;50.938;11.396;2022-11-03T08:22:00;99128.78;;;7.03;96.88
73297;BME280;61524;50.938;11.396;2022-11-03T08:24:26;99130.38;;;7.10;96.13
73297;BME280;61524;50.938;11.396;2022-11-03T08:26:51;99137.34;;;7.23;96.08
73297;BME280;61524;50.938;11.396;2022-11-03T08:29:17;99113.81;;;7.27;95.66
73297;BME280;61524;50.938;11.396;2022-11-03T08:31:43;99117.91;;;7.41;95.52
73297;BME280;61524;50.938;11.396;2022-11-03T08:34:08;99121.22;;;7.55;94.82
73297;BME280;61524;50.938;11.396;2022-11-03T08:36:34;99113.28;;;7.67;94.58
73297;BME280;61524;50.938;11.396;2022-11-03T08:38:59;99105.13;;;7.80;95.80
73297;BME280;61524;50.938;11.396;2022-11-03T08:41:25;99092.44;;;7.94;94.52
73297;BME280;61524;50.938;11.396;2022-11-03T08:43:50;99086.69;;;8.08;93.48
73297;BME280;61524;50.938;11.396;2022-11-03T08:46:16;99084.28;;;8.19;92.64
73297;BME280;61524;50.938;11.396;2022-11-03T08:48:41;99082.59;;;8.36;92.62
73297;BME280;61524;50.938;11.396;2022-11-03T08:51:07;99079.44;;;8.39;93.32
73297;BME280;61524;50.938;11.396;2022-11-03T08:53:34;99077.50;;;8.46;91.52
73297;BME280;61524;50.938;11.396;2022-11-03T08:56:00;99069.84;;;8.50;92.30
73297;BME280;61524;50.938;11.396;2022-11-03T08:58:25;99061.53;;;8.58;91.71
73297;BME280;61524;50.938;11.396;2022-11-03T09:00:51;99048.75;;;8.60;92.06
73297;BME280;61524;50.938;11.396;2022-11-03T09:03:16;99041.81;;;8.71;91.96
73297;BME280;61524;50.938;11.396;2022-11-03T09:05:42;99036.69;;;8.81;91.24
73297;BME280;61524;50.938;11.396;2022-11-03T09:08:08;99029.78;;;8.68;90.55
73297;BME280;61524;50.938;11.396;2022-11-03T09:10:33;99026.09;;;8.57;91.05
73297;BME280;61524;50.938;11.396;2022-11-03T09:12:59;99016.59;;;8.50;90.49
73297;BME280;61524;50.938;11.396;2022-11-03T09:15:24;99016.47;;;8.68;90.20
73297;BME280;61524;50.938;11.396;2022-11-03T09:17:50;99020.47;;;8.82;91.15
73297;BME280;61524;50.938;11.396;2022-11-03T09:20:15;99015.00;;;9.01;89.33
73297;BME280;61524;50.938;11.396;2022-11-03T09:22:41;99014.00;;;9.18;90.01
73297;BME280;61524;50.938;11.396;2022-11-03T09:25:07;99012.16;;;9.36;90.39
73297;BME280;61524;50.938;11.396;2022-11-03T09:27:33;99003.72;;;9.39;87.26
73297;BME280;61524;50.938;11.396;2022-11-03T09:29:58;99003.72;;;9.56;87.56
73297;BME280;61524;50.938;11.396;2022-11-03T09:32:24;98996.16;;;9.64;87.45
73297;BME280;61524;50.938;11.396;2022-11-03T09:34:49;98998.25;;;9.79;86.67
73297;BME280;61524;50.938;11.396;2022-11-03T09:37:14;98988.88;;;9.77;84.80
73297;BME280;61524;50.938;11.396;2022-11-03T09:39:41;98990.00;;;9.81;85.33
73297;BME280;61524;50.938;11.396;2022-11-03T09:42:07;98989.38;;;9.90;85.06
73297;BME280;61524;50.938;11.396;2022-11-03T09:44:33;98983.72;;;9.87;85.28
73297;BME280;61524;50.938;11.396;2022-11-03T09:47:00;98975.06;;;9.96;83.75
73297;BME280;61524;50.938;11.396;2022-11-03T09:49:27;98976.75;;;10.03;84.86
73297;BME280;61524;50.938;11.396;2022-11-03T09:51:55;98969.72;;;9.96;84.11
73297;BME280;61524;50.938;11.396;2022-11-03T09:54:21;98963.06;;;9.99;84.54
73297;BME280;61524;50.938;11.396;2022-11-03T09:56:46;98963.16;;;10.04;83.39
73297;BME280;61524;50.938;11.396;2022-11-03T09:59:20;98969.19;;;10.16;84.11
73297;BME280;61524;50.938;11.396;2022-11-03T10:01:48;98970.06;;;10.22;83.45
73297;BME280;61524;50.938;11.396;2022-11-03T10:04:15;98956.59;;;10.12;83.13
73297;BME280;61524;50.938;11.396;2022-11-03T10:06:43;98948.25;;;10.08;84.29
73297;BME280;61524;50.938;11.396;2022-11-03T10:09:14;98949.78;;;10.04;83.78
73297;BME280;61524;50.938;11.396;2022-11-03T10:11:40;98943.19;;;10.07;83.48
73297;BME280;61524;50.938;11.396;2022-11-03T10:14:09;98944.72;;;10.03;83.69
73297;BME280;61524;50.938;11.396;2022-11-03T10:16:38;98944.53;;;10.09;83.02
73297;BME280;61524;50.938;11.396;2022-11-03T10:19:07;98938.72;;;10.12;81.59
73297;BME280;61524;50.938;11.396;2022-11-03T10:21:32;98950.19;;;10.13;82.49
73297;BME280;61524;50.938;11.396;2022-11-03T10:23:58;98943.53;;;10.32;80.72
73297;BME280;61524;50.938;11.396;2022-11-03T10:26:24;98938.25;;;10.37;80.67
73297;BME280;61524;50.938;11.396;2022-11-03T10:29:01;98928.44;;;10.43;80.02
73297;BME280;61524;50.938;11.396;2022-11-03T10:31:39;98932.06;;;10.54;80.50
73297;BME280;61524;50.938;11.396;2022-11-03T10:34:37;98920.59;;;10.80;79.15
73297;BME280;61524;50.938;11.396;2022-11-03T10:37:24;98908.25;;;11.01;78.53
73297;BME280;61524;50.938;11.396;2022-11-03T10:39:52;98899.97;;;11.29;78.49
73297;BME280;61524;50.938;11.396;2022-11-03T10:42:26;98897.31;;;11.35;78.39
73297;BME280;61524;50.938;11.396;2022-11-03T10:45:17;98888.03;;;11.42;78.54
73297;BME280;61524;50.938;11.396;2022-11-03T10:47:43;98879.66;;;11.34;76.97
73297;BME280;61524;50.938;11.396;2022-11-03T10:50:21;98880.47;;;11.34;77.60
73297;BME280;61524;50.938;11.396;2022-11-03T10:52:48;98873.34;;;11.45;76.53
73297;BME280;61524;50.938;11.396;2022-11-03T10:55:14;98881.22;;;11.29;76.23
73297;BME280;61524;50.938;11.396;2022-11-03T10:57:40;98878.03;;;11.27;76.75
73297;BME280;61524;50.938;11.396;2022-11-03T11:00:06;98874.63;;;11.37;75.74
73297;BME280;61524;50.938;11.396;2022-11-03T11:02:36;98864.78;;;11.43;75.50
73297;BME280;61524;50.938;11.396;2022-11-03T11:05:12;98861.03;;;11.44;76.03
73297;BME280;61524;50.938;11.396;2022-11-03T11:07:40;98862.84;;;11.38;78.25
73297;BME280;61524;50.938;11.396;2022-11-03T11:10:19;98847.06;;;11.37;77.26
73297;BME280;61524;50.938;11.396;2022-11-03T11:15:59;98829.59;;;11.66;77.45
73297;BME280;61524;50.938;11.396;2022-11-03T11:20:55;98824.88;;;11.78;75.08
73297;BME280;61524;50.938;11.396;2022-11-03T11:28:37;98810.47;;;11.85;75.55
73297;BME280;61524;50.938;11.396;2022-11-03T11:33:48;98797.81;;;11.75;74.81
73297;BME280;61524;50.938;11.396;2022-11-03T11:36:24;98802.31;;;11.64;74.68
73297;BME280;61524;50.938;11.396;2022-11-03T11:41:20;98794.88;;;11.76;76.99
73297;BME280;61524;50.938;11.396;2022-11-03T11:43:46;98787.41;;;11.78;75.17
73297;BME280;61524;50.938;11.396;2022-11-03T11:46:24;98777.69;;;11.67;74.65
73297;BME280;61524;50.938;11.396;2022-11-03T11:49:15;98772.31;;;11.62;75.18
73297;BME280;61524;50.938;11.396;2022-11-03T11:51:41;98753.41;;;11.79;75.86
73297;BME280;61524;50.938;11.396;2022-11-03T11:54:11;98750.97;;;11.77;74.45
73297;BME280;61524;50.938;11.396;2022-11-03T11:56:43;98752.59;;;11.78;75.01
73297;BME280;61524;50.938;11.396;2022-11-03T11:59:18;98746.78;;;11.87;75.80
73297;BME280;61524;50.938;11.396;2022-11-03T12:01:48;98739.28;;;11.94;76.17
73297;BME280;61524;50.938;11.396;2022-11-03T12:04:21;98744.09;;;11.87;75.05
73297;BME280;61524;50.938;11.396;2022-11-03T12:06:48;98724.84;;;12.05;75.32
73297;BME280;61524;50.938;11.396;2022-11-03T12:09:19;98719.56;;;12.25;74.83
73297;BME280;61524;50.938;11.396;2022-11-03T12:25:03;98667.09;;;12.70;72.69
73297;BME280;61524;50.938;11.396;2022-11-03T12:30:04;98661.16;;;12.73;74.30
73297;BME280;61524;50.938;11.396;2022-11-03T12:32:30;98655.28;;;12.81;73.69
73297;BME280;61524;50.938;11.396;2022-11-03T12:34:57;98656.31;;;12.96;72.88
73297;BME280;61524;50.938;11.396;2022-11-03T12:37:22;98634.59;;;12.92;73.48
73297;BME280;61524;50.938;11.396;2022-11-03T12:39:48;98642.66;;;12.87;72.00
73297;BME280;61524;50.938;11.396;2022-11-03T12:42:13;98640.78;;;12.87;72.14
73297;BME280;61524;50.938;11.396;2022-11-03T12:44:38;98639.44;;;12.85;73.57
73297;BME280;61524;50.938;11.396;2022-11-03T12:47:04;98628.47;;;12.81;72.46
73297;BME280;61524;50.938;11.396;2022-11-03T12:49:29;98616.69;;;12.72;72.81
73297;BME280;61524;50.938;11.396;2022-11-03T12:51:55;98605.44;;;12.75;73.65
73297;BME280;61524;50.938;11.396;2022-11-03T12:54:24;98607.81;;;12.82;74.35
73297;BME280;61524;50.938;11.396;2022-11-03T12:56:49;98596.28;;;12.86;72.62
73297;BME280;61524;50.938;11.396;2022-11-03T12:59:17;98592.25;;;12.84;73.53
73297;BME280;61524;50.938;11.396;2022-11-03T13:01:42;98596.31;;;12.76;73.52
73297;BME280;61524;50.938;11.396;2022-11-03T13:04:08;98589.88;;;12.72;73.92
73297;BME280;61524;50.938;11.396;2022-11-03T13:06:33;98588.78;;;12.73;73.81
73297;BME280;61524;50.938;11.396;2022-11-03T13:08:59;98584.50;;;12.72;74.48
73297;BME280;61524;50.938;11.396;2022-11-03T13:11:24;98569.50;;;12.71;74.36
73297;BME280;61524;50.938;11.396;2022-11-03T13:14:08;98570.00;;;12.78;74.37
73297;BME280;61524;50.938;11.396;2022-11-03T13:16:33;98560.06;;;12.84;73.26
73297;BME280;61524;50.938;11.396;2022-11-03T13:19:00;98543.50;;;12.77;73.76
73297;BME280;61524;50.938;11.396;2022-11-03T13:21:26;98566.25;;;12.79;73.19
73297;BME280;61524;50.938;11.396;2022-11-03T13:23:51;98548.31;;;12.70;74.03
73297;BME280;61524;50.938;11.396;2022-11-03T13:26:17;98531.47;;;12.59;73.18
73297;BME280;61524;50.938;11.396;2022-11-03T13:28:43;98532.53;;;12.53;74.17
73297;BME280;61524;50.938;11.396;2022-11-03T13:31:09;98523.72;;;12.47;73.33
73297;BME280;61524;50.938;11.396;2022-11-03T13:33:35;98519.44;;;12.41;73.47
73297;BME280;61524;50.938;11.396;2022-11-03T13:36:00;98520.53;;;12.45;73.17
73297;BME280;61524;50.938;11.396;2022-11-03T13:38:25;98515.19;;;12.35;74.20
73297;BME280;61524;50.938;11.396;2022-11-03T13:40:51;98511.13;;;12.38;73.78
73297;BME280;61524;50.938;11.396;2022-11-03T13:43:16;98518.13;;;12.33;74.72
73297;BME280;61524;50.938;11.396;2022-11-03T13:45:42;98515.19;;;12.30;75.16
73297;BME280;61524;50.938;11.396;2022-11-03T13:48:07;98513.03;;;12.37;74.39
73297;BME280;61524;50.938;11.396;2022-11-03T13:50:32;98499.38;;;12.44;74.28
73297;BME280;61524;50.938;11.396;2022-11-03T13:52:58;98490.78;;;12.42;74.50
73297;BME280;61524;50.938;11.396;2022-11-03T13:55:23;98492.91;;;12.50;73.83
73297;BME280;61524;50.938;11.396;2022-11-03T13:57:49;98486.78;;;12.44;74.55
73297;BME280;61524;50.938;11.396;2022-11-03T14:00:14;98489.72;;;12.38;75.33
73297;BME280;61524;50.938;11.396;2022-11-03T14:02:41;98473.13;;;12.25;75.60
73297;BME280;61524;50.938;11.396;2022-11-03T14:05:07;98457.63;;;12.22;75.67
73297;BME280;61524;50.938;11.396;2022-11-03T14:07:34;98449.59;;;12.17;76.04
73297;BME280;61524;50.938;11.396;2022-11-03T14:09:59;98445.88;;;12.08;76.80
73297;BME280;61524;50.938;11.396;2022-11-03T14:12:24;98437.56;;;11.99;76.51
73297;BME280;61524;50.938;11.396;2022-11-03T14:15:07;98432.50;;;11.93;77.34
73297;BME280;61524;50.938;11.396;2022-11-03T14:17:33;98431.44;;;11.78;78.03
73297;BME280;61524;50.938;11.396;2022-11-03T14:19:59;98431.97;;;11.75;77.92
73297;BME280;61524;50.938;11.396;2022-11-03T14:22:25;98427.41;;;11.76;78.12
73297;BME280;61524;50.938;11.396;2022-11-03T14:24:51;98432.22;;;11.79;78.10
73297;BME280;61524;50.938;11.396;2022-11-03T14:27:17;98442.38;;;11.77;78.35
73297;BME280;61524;50.938;11.396;2022-11-03T14:29:43;98428.22;;;11.71;79.17
73297;BME280;61524;50.938;11.396;2022-11-03T14:32:09;98429.00;;;11.77;78.77
73297;BME280;61524;50.938;11.396;2022-11-03T14:34:35;98429.56;;;11.74;79.12
73297;BME280;61524;50.938;11.396;2022-11-03T14:37:01;98433.56;;;11.71;79.51
73297;BME280;61524;50.938;11.396;2022-11-03T14:39:26;98428.75;;;11.73;78.86
73297;BME280;61524;50.938;11.396;2022-11-03T14:41:52;98406.28;;;11.69;79.28
73297;BME280;61524;50.938;11.396;2022-11-03T14:44:36;98426.59;;;11.70;79.67
73297;BME280;61524;50.938;11.396;2022-11-03T14:47:05;98419.09;;;11.67;79.31
73297;BME280;61524;50.938;11.396;2022-11-03T14:49:32;98412.94;;;11.67;79.08
73297;BME280;61524;50.938;11.396;2022-11-03T14:51:58;98416.97;;;11.69;78.75
73297;BME280;61524;50.938;11.396;2022-11-03T14:54:26;98414.31;;;11.64;79.16
73297;BME280;61524;50.938;11.396;2022-11-03T14:56:51;98405.22;;;11.55;80.34
73297;BME280;61524;50.938;11.396;2022-11-03T14:59:18;98399.84;;;11.55;79.86
73297;BME280;61524;50.938;11.396;2022-11-03T15:01:44;98401.44;;;11.46;80.65
73297;BME280;61524;50.938;11.396;2022-11-03T15:04:10;98397.19;;;11.45;80.07
73297;BME280;61524;50.938;11.396;2022-11-03T15:06:37;98386.47;;;11.40;79.97
73297;BME280;61524;50.938;11.396;2022-11-03T15:09:03;98395.34;;;11.30;80.50
73297;BME280;61524;50.938;11.396;2022-11-03T15:11:28;98390.22;;;11.23;81.12
73297;BME280;61524;50.938;11.396;2022-11-03T15:13:54;98395.84;;;11.12;81.12
73297;BME280;61524;50.938;11.396;2022-11-03T15:16:20;98390.75;;;11.05;81.55
73297;BME280;61524;50.938;11.396;2022-11-03T15:18:46;98386.47;;;10.99;81.64
73297;BME280;61524;50.938;11.396;2022-11-03T15:21:11;98383.78;;;10.89;82.10
73297;BME280;61524;50.938;11.396;2022-11-03T15:23:37;98370.41;;;10.89;82.31
73297;BME280;61524;50.938;11.396;2022-11-03T15:26:02;98369.88;;;10.97;81.15
73297;BME280;61524;50.938;11.396;2022-11-03T15:28:28;98361.31;;;10.90;81.96
73297;BME280;61524;50.938;11.396;2022-11-03T15:30:53;98354.66;;;10.82;81.92
73297;BME280;61524;50.938;11.396;2022-11-03T15:33:19;98354.34;;;10.68;82.68
73297;BME280;61524;50.938;11.396;2022-11-03T15:35:44;98345.22;;;10.59;83.20
73297;BME280;61524;50.938;11.396;2022-11-03T15:38:10;98348.69;;;10.55;83.19
73297;BME280;61524;50.938;11.396;2022-11-03T15:40:37;98345.78;;;10.56;83.43
73297;BME280;61524;50.938;11.396;2022-11-03T15:43:02;98333.78;;;10.69;82.48
73297;BME280;61524;50.938;11.396;2022-11-03T15:45:30;98325.50;;;10.75;82.15
73297;BME280;61524;50.938;11.396;2022-11-03T15:47:56;98335.13;;;10.71;82.68
73297;BME280;61524;50.938;11.396;2022-11-03T15:50:21;98323.63;;;10.76;82.17
73297;BME280;61524;50.938;11.396;2022-11-03T15:52:47;98316.66;;;10.75;82.42
73297;BME280;61524;50.938;11.396;2022-11-03T15:55:12;98299.03;;;10.64;82.66
73297;BME280;61524;50.938;11.396;2022-11-03T15:57:38;98301.16;;;10.51;83.20
73297;BME280;61524;50.938;11.396;2022-11-03T16:00:04;98283.78;;;10.44;83.05
73297;BME280;61524;50.938;11.396;2022-11-03T16:02:31;98293.41;;;10.45;83.16
73297;BME280;61524;50.938;11.396;2022-11-03T16:04:56;98283.22;;;10.32;83.73
73297;BME280;61524;50.938;11.396;2022-11-03T16:07:21;98281.59;;;10.31;83.74
73297;BME280;61524;50.938;11.396;2022-11-03T16:09:47;98286.34;;;10.18;84.82
73297;BME280;61524;50.938;11.396;2022-11-03T16:12:13;98270.06;;;10.15;84.86
73297;BME280;61524;50.938;11.396;2022-11-03T16:14:38;98268.97;;;10.11;84.77
73297;BME280;61524;50.938;11.396;2022-11-03T16:17:04;98274.25;;;10.00;84.90
73297;BME280;61524;50.938;11.396;2022-11-03T16:19:30;98264.63;;;9.89;85.96